createdAt,value
2022-08-12T00:02:03.304Z,2.83
2022-08-12T00:04:52.745Z,1.80
2022-08-12T00:07:39.096Z,2.30
2022-08-12T00:10:25.398Z,1.98
2022-08-12T00:13:12.343Z,2.10
2022-08-12T00:16:00.405Z,2.03
2022-08-12T00:18:45.852Z,2.20
2022-08-12T00:21:36.092Z,2.20
2022-08-12T00:24:22.118Z,2.13
2022-08-12T00:27:07.926Z,2.25
2022-08-12T00:29:53.675Z,1.83
2022-08-12T00:32:39.866Z,1.73
2022-08-12T00:35:40.817Z,2.15
2022-08-12T00:38:27.498Z,2.03
2022-08-12T00:43:44.734Z,2.45
2022-08-12T00:46:30.227Z,2.03
2022-08-12T00:48:58.552Z,2.20
2022-08-12T00:51:47.629Z,2.30
2022-08-12T00:54:16.858Z,2.38
2022-08-12T00:56:44.645Z,1.90
2022-08-12T00:59:12.937Z,2.17
2022-08-12T01:02:10.801Z,1.95
2022-08-12T01:04:52.326Z,1.90
2022-08-12T01:07:42.980Z,2.10
2022-08-12T01:10:32.608Z,2.20
2022-08-12T01:13:18.251Z,1.80
2022-08-12T01:15:49.361Z,2.42
2022-08-12T01:18:18.616Z,1.95
2022-08-12T01:20:54.703Z,1.90
2022-08-12T01:23:42.002Z,2.05
2022-08-12T01:26:17.497Z,1.80
2022-08-12T01:28:47.720Z,1.88
2022-08-12T01:31:19.969Z,1.98
2022-08-12T01:33:59.730Z,2.08
2022-08-12T01:36:29.265Z,1.85
2022-08-12T01:39:00.116Z,2.08
2022-08-12T01:41:31.961Z,2.03
2022-08-12T01:44:02.270Z,1.88
2022-08-12T01:46:43.248Z,2.03
2022-08-12T01:49:31.088Z,2.28
2022-08-12T01:52:20.827Z,1.90
2022-08-12T01:54:52.000Z,2.10
2022-08-12T01:57:59.822Z,2.25
2022-08-12T02:00:17.895Z,1.90
2022-08-12T02:02:51.330Z,2.10
2022-08-12T02:05:49.440Z,1.63
2022-08-12T02:08:52.321Z,2.08
2022-08-12T02:11:25.658Z,1.85
2022-08-12T02:14:21.488Z,2.13
2022-08-12T02:17:05.281Z,2.03
2022-08-12T02:19:54.632Z,2.10
2022-08-12T02:22:28.660Z,1.98
2022-08-12T02:25:02.524Z,1.80
2022-08-12T02:27:36.023Z,2.15
2022-08-12T02:30:08.890Z,2.15
2022-08-12T02:32:40.441Z,1.77
2022-08-12T02:35:11.841Z,2.28
2022-08-12T02:37:41.058Z,1.85
2022-08-12T02:40:12.282Z,2.17
2022-08-12T02:42:47.465Z,2.17
2022-08-12T02:45:21.452Z,1.92
2022-08-12T02:48:00.279Z,2.20
2022-08-12T02:50:32.500Z,1.88
2022-08-12T02:53:00.969Z,2.00
2022-08-12T02:55:34.975Z,1.90
2022-08-12T02:58:06.860Z,1.77
2022-08-12T03:00:39.605Z,1.70
2022-08-12T03:03:11.122Z,1.90
2022-08-12T03:05:46.080Z,2.20
2022-08-12T03:08:32.819Z,2.17
2022-08-12T03:13:36.156Z,1.70
2022-08-12T03:16:05.931Z,2.10
2022-08-12T03:18:35.046Z,1.73
2022-08-12T03:21:03.331Z,1.63
2022-08-12T03:23:31.825Z,1.83
2022-08-12T03:26:01.679Z,1.80
2022-08-12T03:28:48.915Z,2.15
2022-08-12T03:31:19.593Z,2.03
2022-08-12T03:34:00.915Z,2.05
2022-08-12T03:36:35.257Z,2.25
2022-08-12T03:39:36.281Z,2.65
2022-08-12T03:42:17.465Z,2.10
2022-08-12T03:45:14.385Z,2.17
2022-08-12T03:48:05.850Z,2.33
2022-08-12T03:50:51.274Z,2.00
2022-08-12T03:53:43.947Z,1.88
2022-08-12T03:56:29.304Z,2.03
2022-08-12T03:59:17.674Z,1.80
2022-08-12T04:01:52.490Z,2.22
2022-08-12T04:04:23.555Z,2.00
2022-08-12T04:06:51.536Z,1.80
2022-08-12T04:09:22.119Z,1.80
2022-08-12T04:12:08.045Z,1.88
2022-08-12T04:14:37.715Z,2.20
2022-08-12T04:17:05.776Z,1.85
2022-08-12T04:19:34.846Z,2.17
2022-08-12T04:22:03.727Z,2.20
2022-08-12T04:24:34.926Z,2.00
2022-08-12T04:27:05.482Z,2.40
2022-08-12T04:30:30.649Z,2.22
2022-08-12T04:32:22.198Z,2.17
2022-08-12T04:34:51.608Z,2.25
2022-08-12T04:37:19.266Z,2.03
2022-08-12T04:39:47.682Z,2.25
2022-08-12T04:42:16.064Z,2.30
2022-08-12T04:44:44.423Z,2.15
2022-08-12T04:47:14.189Z,2.00
2022-08-12T04:49:44.281Z,2.25
2022-08-12T04:52:13.888Z,2.08
2022-08-12T04:54:43.888Z,2.17
2022-08-12T04:57:11.776Z,2.13
2022-08-12T04:59:46.829Z,2.35
2022-08-12T05:02:20.318Z,2.47
2022-08-12T05:04:50.345Z,2.35
2022-08-12T05:07:19.452Z,2.10
2022-08-12T05:10:00.248Z,2.17
2022-08-12T05:12:34.174Z,1.98
2022-08-12T05:15:02.095Z,2.58
2022-08-12T05:17:29.868Z,2.00
2022-08-12T05:19:58.153Z,2.45
2022-08-12T05:22:28.220Z,2.20
2022-08-12T05:24:55.902Z,2.20
2022-08-12T05:27:23.620Z,2.50
2022-08-12T05:30:07.972Z,2.58
2022-08-12T05:32:37.665Z,2.72
2022-08-12T05:35:08.205Z,3.03
2022-08-12T05:37:37.293Z,2.20
2022-08-12T05:40:11.015Z,2.28
2022-08-12T05:42:39.314Z,2.67
2022-08-12T05:45:08.316Z,2.60
2022-08-12T05:47:52.261Z,2.30
2022-08-12T05:50:21.220Z,2.50
2022-08-12T05:52:50.262Z,2.72
2022-08-12T05:55:20.750Z,2.25
2022-08-12T05:57:55.257Z,2.28
2022-08-12T06:00:25.852Z,2.40
2022-08-12T06:02:57.090Z,2.30
2022-08-12T06:05:24.850Z,2.15
2022-08-12T06:08:02.159Z,2.45
2022-08-12T06:10:32.901Z,2.55
2022-08-12T06:13:02.484Z,2.60
2022-08-12T06:15:30.899Z,2.35
2022-08-12T06:18:11.517Z,2.50
2022-08-12T06:20:43.357Z,2.42
2022-08-12T06:23:12.755Z,2.67
2022-08-12T06:25:40.618Z,2.70
2022-08-12T06:28:17.529Z,3.08
2022-08-12T06:31:02.668Z,2.83
2022-08-12T06:33:55.604Z,2.50
2022-08-12T06:36:29.328Z,3.22
2022-08-12T06:38:59.268Z,2.22
2022-08-12T06:42:02.573Z,2.72
2022-08-12T06:44:32.709Z,2.80
2022-08-12T06:47:00.605Z,2.70
2022-08-12T06:49:33.545Z,2.50
2022-08-12T06:52:01.222Z,2.70
2022-08-12T06:54:32.306Z,2.42
2022-08-12T06:57:57.206Z,2.60
2022-08-12T06:59:48.572Z,2.53
2022-08-12T07:02:16.374Z,2.35
2022-08-12T07:04:45.491Z,2.78
2022-08-12T07:07:13.157Z,3.15
2022-08-12T07:10:01.193Z,2.83
2022-08-12T07:12:32.166Z,3.20
2022-08-12T07:15:02.074Z,2.65
2022-08-12T07:17:37.546Z,2.60
2022-08-12T07:20:08.233Z,3.38
2022-08-12T07:22:36.107Z,3.20
2022-08-12T07:25:23.382Z,2.55
2022-08-12T07:27:54.303Z,2.53
2022-08-12T07:30:23.035Z,2.75
2022-08-12T07:32:51.510Z,2.90
2022-08-12T07:35:20.267Z,2.70
2022-08-12T07:37:50.463Z,2.67
2022-08-12T07:40:20.873Z,3.10
2022-08-12T07:42:48.654Z,2.70
2022-08-12T07:45:16.544Z,2.70
2022-08-12T07:47:44.869Z,2.92
2022-08-12T07:50:13.057Z,2.60
2022-08-12T07:52:44.027Z,3.03
2022-08-12T07:55:12.594Z,2.90
2022-08-12T07:57:53.350Z,3.08
2022-08-12T08:00:21.364Z,2.60
2022-08-12T08:02:49.455Z,2.72
2022-08-12T08:05:19.483Z,2.20
2022-08-12T08:07:47.923Z,2.60
2022-08-12T08:10:16.642Z,2.25
2022-08-12T08:12:58.068Z,2.63
2022-08-12T08:15:58.864Z,2.45
2022-08-12T08:18:25.701Z,2.60
2022-08-12T08:20:55.980Z,2.88
2022-08-12T08:23:43.674Z,2.65
2022-08-12T08:26:16.457Z,2.65
2022-08-12T08:28:44.302Z,2.28
2022-08-12T08:31:14.981Z,3.17
2022-08-12T08:34:09.652Z,2.40
2022-08-12T08:36:30.736Z,2.50
2022-08-12T08:38:58.864Z,2.60
2022-08-12T08:42:16.661Z,2.75
2022-08-12T08:44:32.297Z,2.78
2022-08-12T08:47:03.512Z,2.40
2022-08-12T08:49:31.285Z,2.85
2022-08-12T08:51:59.058Z,2.47
2022-08-12T08:54:26.747Z,2.33
2022-08-12T08:56:54.476Z,2.25
2022-08-12T08:59:22.359Z,2.95
2022-08-12T09:01:50.239Z,3.05
2022-08-12T09:05:12.014Z,2.30
2022-08-12T09:07:16.589Z,2.40
2022-08-12T09:12:55.226Z,2.20
2022-08-12T09:15:35.558Z,2.25
2022-08-12T09:18:05.884Z,2.50
2022-08-12T09:20:39.295Z,3.08
2022-08-12T09:23:59.372Z,2.58
2022-08-12T09:26:04.325Z,2.25
2022-08-12T09:28:53.189Z,2.60
2022-08-12T09:32:07.889Z,2.40
2022-08-12T09:34:28.172Z,2.63
2022-08-12T09:37:18.531Z,2.60
2022-08-12T09:40:00.948Z,2.63
2022-08-12T09:43:11.018Z,2.30
2022-08-12T09:46:19.494Z,2.00
2022-08-12T09:48:35.164Z,2.42
2022-08-12T09:51:16.569Z,2.45
2022-08-12T09:54:09.202Z,2.30
2022-08-12T09:57:01.799Z,2.53
2022-08-12T10:00:17.722Z,2.50
2022-08-12T10:02:53.071Z,2.60
2022-08-12T10:05:04.319Z,2.47
2022-08-12T10:07:39.391Z,2.10
2022-08-12T10:10:24.549Z,2.33
2022-08-12T10:13:13.461Z,2.22
2022-08-12T10:16:02.896Z,1.70
2022-08-12T10:18:35.305Z,2.45
2022-08-12T10:21:07.335Z,2.75
2022-08-12T10:23:39.791Z,2.17
2022-08-12T10:26:36.857Z,2.30
2022-08-12T10:30:02.860Z,2.35
2022-08-12T10:32:21.294Z,2.35
2022-08-12T10:34:53.588Z,2.33
2022-08-12T10:38:34.846Z,2.03
2022-08-12T10:40:19.146Z,2.63
2022-08-12T10:43:06.839Z,2.38
2022-08-12T10:45:38.489Z,2.45
2022-08-12T10:48:21.948Z,2.70
2022-08-12T10:51:01.603Z,2.45
2022-08-12T10:53:44.936Z,2.47
2022-08-12T10:56:15.437Z,2.15
2022-08-12T10:58:47.153Z,1.92
2022-08-12T11:01:49.911Z,2.30
2022-08-12T11:04:24.439Z,2.08
2022-08-12T11:07:08.364Z,2.20
2022-08-12T11:09:59.983Z,2.22
2022-08-12T11:12:54.891Z,2.35
2022-08-12T11:15:32.994Z,2.20
2022-08-12T11:18:12.114Z,1.90
2022-08-12T11:20:47.540Z,2.30
2022-08-12T11:23:24.954Z,2.20
2022-08-12T11:26:06.247Z,2.13
2022-08-12T11:28:37.510Z,2.53
2022-08-12T11:31:12.272Z,2.45
2022-08-12T11:34:05.092Z,2.08
2022-08-12T11:36:31.185Z,2.28
2022-08-12T11:39:04.353Z,2.42
2022-08-12T11:41:32.903Z,2.00
2022-08-12T11:44:29.173Z,2.50
2022-08-12T11:46:50.895Z,2.03
2022-08-12T11:49:26.786Z,2.60
2022-08-12T11:52:01.142Z,2.03
2022-08-12T11:54:29.678Z,2.25
2022-08-12T11:57:00.180Z,2.20
2022-08-12T12:01:58.147Z,2.55
2022-08-12T12:02:20.417Z,2.40
2022-08-12T12:04:52.820Z,2.38
2022-08-12T12:08:36.135Z,2.10
2022-08-12T12:10:12.352Z,2.40
2022-08-12T12:12:41.489Z,2.40
2022-08-12T12:15:25.280Z,2.10
2022-08-12T12:18:06.420Z,2.00
2022-08-12T12:20:36.263Z,2.15
2022-08-12T12:23:04.066Z,2.20
2022-08-12T12:25:59.596Z,2.20
2022-08-12T12:28:36.947Z,1.83
2022-08-12T12:31:15.170Z,2.10
2022-08-12T12:33:58.076Z,2.00
2022-08-12T12:36:29.322Z,2.15
2022-08-12T12:38:58.082Z,2.78
2022-08-12T12:42:52.146Z,2.15
2022-08-12T12:44:25.786Z,2.80
2022-08-12T12:46:58.154Z,2.28
2022-08-12T12:49:27.609Z,1.95
2022-08-12T12:52:19.099Z,1.85
2022-08-12T12:54:53.107Z,2.20
2022-08-12T12:57:21.596Z,2.00
2022-08-12T13:00:15.674Z,1.83
2022-08-12T13:02:50.834Z,1.90
2022-08-12T13:05:27.919Z,2.05
2022-08-12T13:08:01.121Z,2.20
2022-08-12T13:10:36.490Z,2.80
2022-08-12T13:14:08.019Z,2.38
2022-08-12T13:15:53.895Z,2.40
2022-08-12T13:18:28.830Z,2.78
2022-08-12T13:20:59.607Z,2.88
2022-08-12T13:23:36.943Z,2.50
2022-08-12T13:26:05.654Z,2.50
2022-08-12T13:28:35.057Z,3.20
2022-08-12T13:31:12.934Z,2.60
2022-08-12T13:34:28.521Z,2.92
2022-08-12T13:36:31.991Z,2.63
2022-08-12T13:38:59.666Z,2.90
2022-08-12T13:41:36.665Z,2.60
2022-08-12T13:44:06.505Z,2.67
2022-08-12T13:46:40.768Z,2.70
2022-08-12T13:49:20.451Z,2.55
2022-08-12T13:52:02.662Z,2.60
2022-08-12T13:54:31.206Z,2.58
2022-08-12T13:56:58.871Z,2.60
2022-08-12T13:59:28.378Z,2.53
2022-08-12T14:01:57.478Z,2.30
2022-08-12T14:04:25.216Z,2.60
2022-08-12T14:06:55.244Z,2.25
2022-08-12T14:09:29.523Z,2.45
2022-08-12T14:11:58.730Z,2.25
2022-08-12T14:14:31.474Z,2.40
2022-08-12T14:17:05.722Z,2.53
2022-08-12T14:19:48.680Z,2.40
2022-08-12T14:22:21.410Z,2.60
2022-08-12T14:24:58.268Z,2.25
2022-08-12T14:28:03.791Z,2.28
2022-08-12T14:30:28.944Z,2.40
2022-08-12T14:32:57.639Z,2.05
2022-08-12T14:35:25.382Z,2.30
2022-08-12T14:37:58.150Z,1.98
2022-08-12T14:40:29.365Z,2.33
2022-08-12T14:42:59.127Z,2.25
2022-08-12T14:45:45.524Z,2.10
2022-08-12T14:48:18.497Z,2.20
2022-08-12T14:51:02.667Z,2.35
2022-08-12T14:59:56.310Z,2.35
2022-08-12T15:02:21.074Z,2.33
2022-08-12T15:04:58.690Z,2.22
2022-08-12T15:07:34.433Z,2.45
2022-08-12T15:10:14.848Z,2.45
2022-08-12T15:12:54.629Z,2.58
2022-08-12T15:15:22.789Z,2.33
2022-08-12T15:17:59.377Z,2.17
2022-08-12T15:20:33.170Z,2.35
2022-08-12T15:23:05.731Z,2.33
2022-08-12T15:25:47.745Z,2.10
2022-08-12T15:28:22.475Z,2.30
2022-08-12T15:30:53.170Z,2.63
2022-08-12T15:33:24.332Z,2.05
2022-08-12T15:35:54.007Z,2.00
2022-08-12T15:38:25.314Z,2.20
2022-08-12T15:40:55.242Z,2.08
2022-08-12T15:43:35.588Z,2.42
2022-08-12T15:46:15.236Z,2.00
2022-08-12T15:48:46.446Z,2.20
2022-08-12T15:51:59.596Z,1.92
2022-08-12T15:54:30.916Z,2.35
2022-08-12T15:59:52.061Z,1.90
2022-08-12T16:02:20.566Z,2.20
2022-08-12T16:04:51.201Z,2.30
2022-08-12T16:07:29.827Z,1.92
2022-08-12T16:10:10.155Z,2.22
2022-08-12T16:12:43.288Z,2.28
2022-08-12T16:15:13.858Z,2.92
2022-08-12T16:18:18.522Z,2.35
2022-08-12T16:20:34.301Z,2.42
2022-08-12T16:23:14.915Z,2.30
2022-08-12T16:26:05.370Z,1.92
2022-08-12T16:28:34.977Z,2.47
2022-08-12T16:31:05.626Z,2.15
2022-08-12T16:34:00.012Z,2.75
2022-08-12T16:36:25.374Z,2.60
2022-08-12T16:38:53.144Z,2.95
2022-08-12T16:41:21.006Z,2.45
2022-08-12T16:43:48.687Z,1.90
2022-08-12T16:46:32.419Z,2.00
2022-08-12T16:49:09.098Z,1.90
2022-08-12T16:51:46.434Z,2.13
2022-08-12T16:54:17.106Z,2.05
2022-08-12T16:56:55.489Z,2.28
2022-08-12T16:59:53.006Z,2.72
2022-08-12T17:02:18.113Z,2.30
2022-08-12T17:05:03.746Z,1.88
2022-08-12T17:07:36.820Z,2.00
2022-08-12T17:10:06.799Z,1.95
2022-08-12T17:12:37.546Z,2.10
2022-08-12T17:15:50.413Z,2.30
2022-08-12T17:18:38.843Z,2.50
2022-08-12T17:20:47.732Z,1.90
2022-08-12T17:23:17.060Z,1.88
2022-08-12T17:25:48.330Z,2.15
2022-08-12T17:28:17.240Z,2.15
2022-08-12T17:30:45.991Z,1.98
2022-08-12T17:33:26.716Z,1.70
2022-08-12T17:35:58.450Z,2.10
2022-08-12T17:38:26.811Z,2.15
2022-08-12T17:40:55.436Z,2.13
2022-08-12T17:43:55.882Z,1.92
2022-08-12T17:46:12.879Z,2.00
2022-08-12T17:48:55.330Z,1.75
2022-08-12T17:51:24.632Z,1.90
2022-08-12T17:54:10.362Z,2.20
2022-08-12T17:56:39.946Z,1.98
2022-08-12T17:59:12.544Z,1.77
2022-08-12T18:01:44.451Z,1.90
2022-08-12T18:04:21.962Z,1.95
2022-08-12T18:06:51.950Z,1.90
2022-08-12T18:09:21.166Z,2.28
2022-08-12T18:12:08.725Z,2.00
2022-08-12T18:14:36.992Z,1.63
2022-08-12T18:17:08.454Z,1.67
2022-08-12T18:20:05.873Z,1.80
2022-08-12T18:22:31.699Z,2.10
2022-08-12T18:25:03.728Z,1.80
2022-08-12T18:27:43.901Z,1.95
2022-08-12T18:30:20.317Z,1.50
2022-08-12T18:33:03.906Z,1.90
2022-08-12T18:38:22.161Z,1.85
2022-08-12T18:41:09.842Z,1.42
2022-08-12T18:43:58.727Z,1.60
2022-08-12T18:46:47.179Z,1.90
2022-08-12T18:49:19.268Z,1.60
2022-08-12T18:51:55.133Z,2.00
2022-08-12T18:54:32.269Z,1.77
2022-08-12T18:57:03.880Z,1.85
2022-08-12T19:00:01.360Z,1.95
2022-08-12T19:02:23.080Z,2.13
2022-08-12T19:04:53.541Z,1.92
2022-08-12T19:07:24.576Z,1.65
2022-08-12T19:09:59.092Z,1.58
2022-08-12T19:12:57.488Z,1.88
2022-08-12T19:15:27.180Z,1.75
2022-08-12T19:18:02.536Z,2.42
2022-08-12T19:20:31.691Z,2.28
2022-08-12T19:23:07.248Z,1.73
2022-08-12T19:26:02.053Z,1.83
2022-08-12T19:28:34.352Z,1.77
2022-08-12T19:31:57.241Z,1.65
2022-08-12T19:37:17.107Z,1.83
2022-08-12T19:40:09.841Z,1.80
2022-08-12T19:42:36.177Z,1.85
2022-08-12T19:45:12.278Z,1.88
2022-08-12T19:47:41.024Z,1.83
2022-08-12T19:50:11.363Z,2.00
2022-08-12T19:52:40.944Z,1.85
2022-08-12T19:55:19.897Z,1.83
2022-08-12T19:58:02.851Z,1.80
2022-08-12T20:00:34.443Z,1.83
2022-08-12T20:03:04.629Z,1.92
2022-08-12T20:06:04.820Z,1.80
2022-08-12T20:08:34.109Z,2.03
2022-08-12T20:12:09.107Z,1.90
2022-08-12T20:14:01.237Z,2.00
2022-08-12T20:19:17.477Z,1.90
2022-08-12T20:21:45.652Z,1.90
2022-08-12T20:24:14.801Z,1.80
2022-08-12T20:26:44.295Z,1.90
2022-08-12T20:29:14.659Z,1.65
2022-08-12T20:31:44.409Z,2.00
2022-08-12T20:34:12.696Z,1.95
2022-08-12T20:36:44.604Z,2.00
2022-08-12T20:39:37.169Z,1.83
2022-08-12T20:42:07.904Z,1.80
2022-08-12T20:44:39.703Z,1.75
2022-08-12T20:47:17.868Z,1.90
2022-08-12T20:49:55.700Z,1.90
2022-08-12T20:52:29.797Z,2.10
2022-08-12T20:55:15.683Z,2.08
2022-08-12T20:58:01.849Z,1.90
2022-08-12T21:00:31.029Z,1.90
2022-08-12T21:03:19.665Z,2.00
2022-08-12T21:06:13.602Z,2.03
2022-08-12T21:08:41.881Z,2.38
2022-08-12T21:11:10.358Z,1.90
2022-08-12T21:13:41.908Z,1.80
2022-08-12T21:16:10.459Z,2.00
2022-08-12T21:18:38.541Z,1.80
2022-08-12T21:21:06.845Z,1.90
2022-08-12T21:23:52.262Z,2.08
2022-08-12T21:26:24.425Z,2.58
2022-08-12T21:29:01.260Z,1.90
2022-08-12T21:32:39.259Z,2.25
2022-08-12T21:34:22.095Z,2.28
2022-08-12T21:36:54.068Z,1.93
2022-08-12T21:39:27.875Z,2.05
2022-08-12T21:42:06.587Z,1.65
2022-08-12T21:45:46.510Z,1.80
2022-08-12T21:47:25.507Z,1.70
2022-08-12T21:50:03.729Z,2.38
2022-08-12T21:52:36.222Z,1.70
2022-08-12T21:55:08.275Z,2.00
2022-08-12T21:57:54.045Z,1.98
2022-08-12T22:00:33.160Z,2.10
2022-08-12T22:03:25.106Z,1.98
2022-08-12T22:06:31.686Z,1.67
2022-08-12T22:09:16.247Z,2.20
2022-08-12T22:11:56.052Z,1.98
2022-08-12T22:14:25.153Z,1.80
2022-08-12T22:16:56.052Z,1.85
2022-08-12T22:19:24.239Z,2.10
2022-08-12T22:21:54.693Z,2.15
2022-08-12T22:24:26.584Z,2.00
2022-08-12T22:26:57.740Z,1.95
2022-08-12T22:29:48.643Z,2.20
2022-08-12T22:32:19.117Z,2.35
2022-08-12T22:35:08.163Z,1.90
2022-08-12T22:37:38.923Z,2.20
2022-08-12T22:40:07.769Z,1.85
2022-08-12T22:42:53.765Z,1.85
2022-08-12T22:45:48.379Z,1.90
2022-08-12T22:48:26.541Z,2.13
2022-08-12T22:50:59.299Z,1.90
2022-08-12T22:53:35.912Z,2.33
2022-08-12T22:56:07.034Z,1.88
2022-08-12T22:58:36.607Z,2.00
2022-08-12T23:01:10.887Z,2.20
2022-08-12T23:03:48.558Z,2.40
2022-08-12T23:06:19.925Z,1.83
2022-08-12T23:08:48.255Z,2.15
2022-08-12T23:11:17.184Z,2.40
2022-08-12T23:13:54.812Z,2.40
2022-08-12T23:16:29.023Z,1.88
2022-08-12T23:19:10.980Z,2.20
2022-08-12T23:22:05.988Z,2.00
2022-08-12T23:24:55.541Z,2.15
2022-08-12T23:27:50.354Z,2.05
2022-08-12T23:30:24.969Z,2.10
2022-08-12T23:32:54.604Z,2.00
2022-08-12T23:35:53.917Z,2.05
2022-08-12T23:38:30.404Z,2.25
2022-08-12T23:40:59.573Z,2.25
2022-08-12T23:43:39.025Z,2.30
2022-08-12T23:46:09.098Z,2.10
2022-08-12T23:48:37.691Z,2.25
2022-08-12T23:51:21.696Z,2.22
2022-08-12T23:53:54.667Z,2.13
2022-08-12T23:56:24.607Z,2.15
2022-08-12T23:58:55.009Z,2.05
